createdAt,value
2019-01-29T00:01:29.192Z,2.20
2019-01-29T00:04:00.249Z,2.20
2019-01-29T00:06:31.569Z,1.93
2019-01-29T00:09:02.957Z,2.03
2019-01-29T00:11:33.909Z,1.87
2019-01-29T00:14:04.785Z,2.40
2019-01-29T00:16:35.530Z,2.67
2019-01-29T00:19:06.227Z,2.40
2019-01-29T00:21:37.433Z,2.10
2019-01-29T00:24:07.790Z,2.63
2019-01-29T00:26:39.116Z,2.33
2019-01-29T00:29:10.578Z,3.00
2019-01-29T00:31:41.252Z,2.00
2019-01-29T00:34:11.932Z,2.20
2019-01-29T00:36:43.336Z,2.17
2019-01-29T00:39:15.454Z,2.30
2019-01-29T00:41:47.137Z,2.60
2019-01-29T00:44:18.434Z,2.50
2019-01-29T00:46:48.779Z,2.20
2019-01-29T00:49:20.351Z,2.50
2019-01-29T00:51:51.294Z,2.60
2019-01-29T00:54:22.383Z,2.40
2019-01-29T00:56:52.712Z,2.87
2019-01-29T00:59:23.525Z,2.50
2019-01-29T01:01:54.989Z,3.10
2019-01-29T01:04:25.592Z,3.07
2019-01-29T01:06:57.056Z,2.87
2019-01-29T01:09:28.105Z,2.60
2019-01-29T01:11:59.145Z,2.67
2019-01-29T01:14:30.074Z,2.40
2019-01-29T01:17:00.823Z,2.73
2019-01-29T01:19:31.856Z,2.50
2019-01-29T01:22:02.715Z,2.63
2019-01-29T01:24:34.046Z,2.97
2019-01-29T01:27:32.012Z,2.70
2019-01-29T01:30:03.046Z,2.57
2019-01-29T01:32:33.461Z,2.43
2019-01-29T01:35:04.739Z,2.90
2019-01-29T01:37:35.761Z,2.17
2019-01-29T01:40:12.119Z,2.87
2019-01-29T01:42:42.752Z,2.33
2019-01-29T01:45:13.761Z,2.57
2019-01-29T01:47:45.102Z,2.90
2019-01-29T01:50:16.096Z,3.47
2019-01-29T01:52:46.775Z,2.80
2019-01-29T01:55:19.507Z,2.67
2019-01-29T01:57:50.597Z,2.90
2019-01-29T02:00:24.259Z,2.80
2019-01-29T03:01:55.708Z,5.03
2019-01-29T03:04:45.468Z,4.13
2019-01-29T03:07:16.617Z,3.47
2019-01-29T03:09:47.524Z,3.40
2019-01-29T03:12:18.351Z,3.67
2019-01-29T03:14:49.742Z,3.87
2019-01-29T03:17:21.474Z,3.37
2019-01-29T03:19:52.508Z,3.10
2019-01-29T03:22:23.859Z,3.20
2019-01-29T03:24:55.323Z,3.57
2019-01-29T03:27:26.442Z,3.47
2019-01-29T03:29:56.806Z,3.50
2019-01-29T03:32:28.216Z,3.00
2019-01-29T03:34:59.497Z,3.30
2019-01-29T03:37:30.162Z,3.23
2019-01-29T03:40:01.494Z,2.93
2019-01-29T03:42:49.306Z,3.40
2019-01-29T03:45:20.571Z,3.10
2019-01-29T03:47:51.662Z,3.50
2019-01-29T03:50:23.984Z,3.40
2019-01-29T03:52:55.826Z,3.47
2019-01-29T03:55:26.147Z,3.20
2019-01-29T03:57:57.753Z,3.47
2019-01-29T04:00:29.578Z,3.30
2019-01-29T04:03:01.252Z,3.27
2019-01-29T04:05:32.749Z,2.90
2019-01-29T04:08:04.017Z,3.27
2019-01-29T04:10:35.476Z,2.93
2019-01-29T04:13:06.280Z,3.07
2019-01-29T04:15:36.984Z,3.07
2019-01-29T04:18:07.983Z,3.37
2019-01-29T04:20:38.724Z,3.23
2019-01-29T04:23:09.418Z,3.60
2019-01-29T04:25:40.460Z,3.37
2019-01-29T04:28:12.313Z,3.30
2019-01-29T04:30:43.246Z,3.30
2019-01-29T04:33:13.910Z,3.00
2019-01-29T04:35:45.323Z,3.00
2019-01-29T04:38:15.946Z,3.30
2019-01-29T04:40:47.030Z,3.50
2019-01-29T04:43:19.907Z,3.60
2019-01-29T04:45:50.946Z,3.43
2019-01-29T04:48:22.018Z,3.70
2019-01-29T04:50:53.153Z,3.50
2019-01-29T04:53:24.212Z,3.47
2019-01-29T04:55:54.882Z,3.60
2019-01-29T04:58:26.275Z,3.07
2019-01-29T05:00:57.422Z,4.03
2019-01-29T05:03:27.784Z,3.30
2019-01-29T05:06:01.035Z,3.03
2019-01-29T05:08:32.037Z,3.27
2019-01-29T05:11:02.979Z,3.50
2019-01-29T05:13:35.047Z,3.17
2019-01-29T05:16:05.774Z,3.70
2019-01-29T05:18:36.603Z,3.53
2019-01-29T05:21:07.653Z,3.53
2019-01-29T05:23:38.289Z,3.23
2019-01-29T05:26:08.593Z,3.73
2019-01-29T05:28:39.652Z,3.47
2019-01-29T05:31:10.623Z,3.23
2019-01-29T05:33:41.645Z,3.33
2019-01-29T05:36:12.477Z,3.60
2019-01-29T05:38:43.144Z,3.90
2019-01-29T05:41:14.331Z,3.40
2019-01-29T05:43:45.062Z,3.87
2019-01-29T05:46:18.188Z,3.33
2019-01-29T05:48:49.229Z,3.50
2019-01-29T05:51:20.284Z,3.33
2019-01-29T05:53:50.903Z,3.27
2019-01-29T05:56:21.947Z,3.33
2019-01-29T05:58:54.004Z,3.50
2019-01-29T06:01:24.772Z,3.70
2019-01-29T06:03:55.770Z,3.63
2019-01-29T06:06:27.249Z,3.80
2019-01-29T06:08:57.939Z,3.77
2019-01-29T06:11:28.928Z,3.83
2019-01-29T06:14:00.034Z,5.20
2019-01-29T06:16:30.684Z,3.50
2019-01-29T06:19:01.664Z,3.60
2019-01-29T06:21:33.007Z,3.70
2019-01-29T06:24:04.362Z,3.83
2019-01-29T06:26:35.395Z,4.20
2019-01-29T06:29:05.932Z,4.30
2019-01-29T06:31:36.224Z,4.23
2019-01-29T06:34:07.193Z,3.97
2019-01-29T06:36:38.565Z,3.73
2019-01-29T06:39:10.144Z,4.20
2019-01-29T06:41:41.434Z,3.73
2019-01-29T06:44:15.954Z,3.80
2019-01-29T06:46:47.407Z,4.10
2019-01-29T06:49:18.469Z,4.30
2019-01-29T06:51:49.500Z,3.80
2019-01-29T06:54:22.861Z,4.00
2019-01-29T06:56:53.660Z,3.50
2019-01-29T06:59:24.651Z,4.10
2019-01-29T07:01:55.693Z,4.13
2019-01-29T07:04:44.664Z,4.43
2019-01-29T07:07:16.070Z,4.10
2019-01-29T07:09:47.364Z,4.00
2019-01-29T07:12:18.470Z,4.87
2019-01-29T07:14:49.863Z,4.50
2019-01-29T07:17:26.026Z,4.80
2019-01-29T07:19:59.865Z,4.37
2019-01-29T07:22:30.553Z,3.60
2019-01-29T07:25:01.609Z,4.13
2019-01-29T07:27:33.043Z,3.57
2019-01-29T07:30:04.219Z,3.47
2019-01-29T07:32:34.820Z,3.80
2019-01-29T07:35:05.925Z,3.33
2019-01-29T07:37:36.919Z,3.57
2019-01-29T07:40:08.638Z,3.97
2019-01-29T07:42:40.285Z,3.80
2019-01-29T07:45:12.898Z,3.93
2019-01-29T07:47:43.568Z,3.80
2019-01-29T07:50:14.638Z,4.83
2019-01-29T07:52:45.611Z,4.10
2019-01-29T07:55:15.895Z,3.97
2019-01-29T07:57:46.876Z,4.83
2019-01-29T08:00:17.698Z,3.53
2019-01-29T08:02:48.963Z,3.90
2019-01-29T08:05:20.700Z,4.03
2019-01-29T08:07:51.533Z,4.60
2019-01-29T08:10:22.270Z,4.13
2019-01-29T08:12:54.125Z,4.10
2019-01-29T08:15:24.961Z,4.03
2019-01-29T08:17:55.913Z,4.00
2019-01-29T08:20:26.856Z,4.00
2019-01-29T08:22:58.497Z,3.50
2019-01-29T08:25:29.668Z,3.83
2019-01-29T08:28:00.675Z,3.60
2019-01-29T08:30:31.480Z,3.70
2019-01-29T08:33:02.752Z,3.97
2019-01-29T08:35:33.053Z,3.77
2019-01-29T08:38:03.788Z,3.87
2019-01-29T08:40:34.757Z,3.97
2019-01-29T08:43:05.505Z,3.90
2019-01-29T08:45:36.548Z,3.90
2019-01-29T08:48:07.393Z,4.10
2019-01-29T08:50:37.676Z,4.40
2019-01-29T08:53:10.600Z,4.17
2019-01-29T08:55:43.264Z,3.77
2019-01-29T08:58:14.329Z,4.43
2019-01-29T09:00:45.649Z,3.70
2019-01-29T09:03:18.574Z,4.17
2019-01-29T09:05:49.149Z,4.03
2019-01-29T09:08:20.011Z,3.83
2019-01-29T09:10:50.342Z,3.53
2019-01-29T09:13:20.972Z,3.60
2019-01-29T09:15:52.300Z,3.70
2019-01-29T09:18:23.339Z,3.53
2019-01-29T09:20:54.497Z,3.60
2019-01-29T09:23:24.782Z,3.37
2019-01-29T09:25:55.368Z,3.20
2019-01-29T09:28:26.288Z,4.00
2019-01-29T09:30:57.434Z,3.40
2019-01-29T09:33:28.465Z,3.57
2019-01-29T09:35:59.785Z,3.30
2019-01-29T09:38:30.753Z,4.27
2019-01-29T09:41:01.435Z,3.67
2019-01-29T09:43:32.513Z,3.97
2019-01-29T09:46:04.272Z,3.77
2019-01-29T09:48:34.960Z,3.23
2019-01-29T09:51:05.594Z,3.60
2019-01-29T09:53:36.790Z,3.50
2019-01-29T09:56:07.734Z,3.33
2019-01-29T09:58:39.585Z,3.40
2019-01-29T10:01:10.650Z,3.20
2019-01-29T10:03:41.987Z,2.90
2019-01-29T10:06:13.097Z,3.20
2019-01-29T10:08:43.758Z,3.40
2019-01-29T10:11:15.131Z,3.20
2019-01-29T10:13:45.778Z,3.77
2019-01-29T10:16:16.759Z,3.13
2019-01-29T10:18:48.552Z,2.97
2019-01-29T10:21:21.038Z,2.50
2019-01-29T10:23:52.393Z,3.00
2019-01-29T10:26:23.377Z,2.80
2019-01-29T10:28:54.029Z,2.70
2019-01-29T10:31:24.666Z,3.30
2019-01-29T10:33:55.352Z,2.87
2019-01-29T10:36:26.429Z,2.87
2019-01-29T10:38:57.499Z,2.90
2019-01-29T10:41:29.135Z,3.27
2019-01-29T10:44:00.251Z,2.60
2019-01-29T10:46:31.335Z,2.77
2019-01-29T10:49:02.372Z,2.70
2019-01-29T10:51:33.726Z,2.97
2019-01-29T10:54:04.594Z,2.77
2019-01-29T10:56:36.357Z,2.67
2019-01-29T10:59:07.462Z,2.40
2019-01-29T11:01:38.134Z,2.70
2019-01-29T11:04:08.834Z,3.10
2019-01-29T11:06:39.901Z,3.03
2019-01-29T11:09:14.017Z,2.77
2019-01-29T11:11:45.175Z,3.27
2019-01-29T11:14:15.847Z,3.10
2019-01-29T11:16:46.211Z,3.67
2019-01-29T11:19:16.879Z,3.07
2019-01-29T11:21:49.348Z,2.70
2019-01-29T11:24:20.311Z,3.10
2019-01-29T11:26:50.683Z,2.90
2019-01-29T11:29:22.065Z,3.07
2019-01-29T11:31:53.533Z,2.73
2019-01-29T11:34:24.192Z,2.83
2019-01-29T11:36:55.653Z,2.70
2019-01-29T11:39:26.666Z,2.33
2019-01-29T11:41:57.759Z,2.60
2019-01-29T11:44:30.118Z,2.90
2019-01-29T11:47:01.870Z,2.83
2019-01-29T11:49:34.004Z,2.80
2019-01-29T11:52:04.404Z,2.57
2019-01-29T11:54:35.204Z,2.40
2019-01-29T11:57:05.562Z,3.10
2019-01-29T11:59:36.248Z,2.63
2019-01-29T12:02:07.688Z,3.10
2019-01-29T12:04:38.065Z,2.20
2019-01-29T12:07:08.726Z,2.40
2019-01-29T12:09:39.437Z,2.33
2019-01-29T12:12:10.541Z,2.57
2019-01-29T12:14:41.688Z,2.60
2019-01-29T12:17:13.127Z,2.30
2019-01-29T12:19:44.136Z,2.20
2019-01-29T12:22:15.299Z,2.47
2019-01-29T12:24:46.110Z,2.10
2019-01-29T12:27:17.142Z,2.70
2019-01-29T12:29:47.473Z,2.87
2019-01-29T12:32:17.834Z,2.70
2019-01-29T12:34:48.869Z,3.00
2019-01-29T12:37:19.588Z,3.03
2019-01-29T12:39:50.642Z,2.83
2019-01-29T12:42:21.275Z,2.37
2019-01-29T12:44:52.081Z,2.47
2019-01-29T12:47:22.438Z,2.40
2019-01-29T12:49:53.558Z,2.10
2019-01-29T12:52:51.785Z,2.47
2019-01-29T12:55:22.467Z,2.37
2019-01-29T12:57:53.090Z,2.47
2019-01-29T13:00:25.943Z,3.03
2019-01-29T13:02:56.566Z,2.70
2019-01-29T13:05:27.574Z,2.33
2019-01-29T13:07:58.290Z,2.37
2019-01-29T13:10:30.082Z,3.10
2019-01-29T13:13:01.199Z,3.03
2019-01-29T13:15:31.677Z,2.67
2019-01-29T13:18:02.367Z,2.30
2019-01-29T13:20:33.294Z,2.60
2019-01-29T13:23:03.936Z,2.33
2019-01-29T13:25:34.640Z,2.20
2019-01-29T13:28:05.548Z,2.60
2019-01-29T13:30:38.513Z,2.17
2019-01-29T13:33:15.642Z,2.90
2019-01-29T13:35:47.004Z,2.47
2019-01-29T13:38:18.065Z,2.47
2019-01-29T13:40:54.367Z,2.80
2019-01-29T13:43:25.346Z,2.00
2019-01-29T13:45:55.982Z,2.80
2019-01-29T13:48:27.535Z,2.30
2019-01-29T13:51:01.650Z,2.30
2019-01-29T13:53:32.186Z,2.10
2019-01-29T13:56:02.890Z,2.67
2019-01-29T13:59:07.422Z,1.97
2019-01-29T14:01:38.282Z,2.17
2019-01-29T14:04:11.256Z,2.40
2019-01-29T14:06:42.317Z,2.33
2019-01-29T14:09:13.594Z,2.10
2019-01-29T14:11:44.611Z,2.30
2019-01-29T14:14:15.945Z,2.50
2019-01-29T14:16:47.157Z,2.10
2019-01-29T14:19:18.742Z,1.90
2019-01-29T14:22:01.029Z,2.47
2019-01-29T14:24:33.659Z,2.70
2019-01-29T14:27:04.261Z,2.30
2019-01-29T14:29:35.085Z,1.90
2019-01-29T14:32:06.449Z,1.80
2019-01-29T14:34:37.483Z,2.27
2019-01-29T14:37:07.810Z,2.17
2019-01-29T14:40:21.747Z,1.97
2019-01-29T14:42:52.797Z,2.40
2019-01-29T14:45:28.012Z,1.83
2019-01-29T14:47:59.218Z,2.10
2019-01-29T14:50:40.169Z,1.93
2019-01-29T14:53:36.094Z,2.00
2019-01-29T14:56:28.523Z,2.17
2019-01-29T14:58:58.848Z,2.43
2019-01-29T15:01:37.562Z,2.03
2019-01-29T15:04:08.286Z,2.17
2019-01-29T15:06:58.600Z,2.27
2019-01-29T15:09:29.532Z,2.23
2019-01-29T15:12:09.982Z,1.90
2019-01-29T15:14:59.143Z,2.10
2019-01-29T15:17:43.407Z,2.10
2019-01-29T15:20:19.783Z,2.53
2019-01-29T15:23:00.140Z,2.23
2019-01-29T15:25:50.742Z,2.77
2019-01-29T15:28:21.770Z,2.40
2019-01-29T15:30:53.331Z,2.20
2019-01-29T15:33:25.645Z,2.43
2019-01-29T15:35:56.053Z,2.17
2019-01-29T15:38:26.732Z,2.10
2019-01-29T15:40:57.021Z,2.10
2019-01-29T15:43:27.791Z,3.43
2019-01-29T15:45:58.137Z,3.13
2019-01-29T15:48:28.829Z,1.97
2019-01-29T15:50:59.951Z,2.43
2019-01-29T15:53:30.957Z,2.07
2019-01-29T15:56:01.998Z,2.07
2019-01-29T15:58:32.811Z,2.13
2019-01-29T16:01:03.191Z,2.27
2019-01-29T16:03:37.359Z,3.07
2019-01-29T16:06:08.024Z,2.80
2019-01-29T16:08:40.337Z,2.13
2019-01-29T16:11:10.995Z,2.60
2019-01-29T16:13:43.312Z,3.10
2019-01-29T16:16:16.631Z,2.60
2019-01-29T16:18:47.873Z,2.60
2019-01-29T16:21:18.933Z,2.50
2019-01-29T16:23:53.798Z,2.63
2019-01-29T16:26:25.198Z,3.07
2019-01-29T16:28:57.289Z,4.60
2019-01-29T16:31:52.915Z,4.23
2019-01-29T16:34:24.043Z,3.10
2019-01-29T16:36:55.107Z,2.13
2019-01-29T16:39:59.136Z,2.63
2019-01-29T16:42:40.894Z,2.07
2019-01-29T16:45:17.867Z,2.57
2019-01-29T16:47:48.712Z,2.37
2019-01-29T16:50:20.185Z,3.33
2019-01-29T16:52:59.050Z,3.37
2019-01-29T16:55:41.737Z,2.70
2019-01-29T16:58:13.059Z,2.70
2019-01-29T17:00:51.604Z,3.20
2019-01-29T17:03:39.281Z,3.73
2019-01-29T17:06:16.666Z,2.87
2019-01-29T17:08:53.308Z,3.07
2019-01-29T17:11:38.619Z,3.10
2019-01-29T17:14:20.828Z,3.23
2019-01-29T17:17:00.705Z,3.50
2019-01-29T17:19:31.508Z,3.80
2019-01-29T17:22:02.820Z,3.40
2019-01-29T17:24:36.294Z,2.67
2019-01-29T17:27:07.033Z,3.20
2019-01-29T17:29:41.966Z,3.67
2019-01-29T17:32:14.136Z,3.37
2019-01-29T17:34:47.221Z,3.17
2019-01-29T17:37:19.950Z,3.77
2019-01-29T17:40:14.558Z,3.63
2019-01-29T17:43:08.319Z,2.93
2019-01-29T17:45:48.926Z,3.17
2019-01-29T17:48:21.089Z,3.17
2019-01-29T17:50:52.762Z,2.50
2019-01-29T17:53:27.564Z,3.17
2019-01-29T17:56:01.515Z,2.80
2019-01-29T17:58:36.036Z,3.07
2019-01-29T18:01:17.044Z,3.20
2019-01-29T18:03:56.159Z,4.07
2019-01-29T18:06:35.201Z,3.60
2019-01-29T18:09:11.166Z,4.27
2019-01-29T18:12:01.101Z,4.37
2019-01-29T18:14:38.869Z,3.43
2019-01-29T18:17:14.895Z,5.17
2019-01-29T18:19:48.822Z,4.00
2019-01-29T18:22:28.254Z,3.57
2019-01-29T18:25:00.297Z,4.37
2019-01-29T18:27:37.069Z,3.83
2019-01-29T18:30:14.045Z,3.70
2019-01-29T18:32:50.618Z,3.67
2019-01-29T18:35:21.290Z,3.47
2019-01-29T18:37:58.314Z,3.83
2019-01-29T18:40:39.531Z,4.20
2019-01-29T18:43:17.827Z,4.30
2019-01-29T18:45:59.637Z,3.47
2019-01-29T18:48:42.000Z,2.87
2019-01-29T18:51:12.917Z,3.10
2019-01-29T18:54:24.863Z,3.50
2019-01-29T18:56:56.064Z,4.13
2019-01-29T18:59:27.129Z,3.93
2019-01-29T19:01:58.372Z,4.07
2019-01-29T19:04:30.870Z,4.20
2019-01-29T19:07:02.596Z,3.50
2019-01-29T19:10:47.431Z,4.57
2019-01-29T19:13:21.428Z,4.23
2019-01-29T19:15:59.936Z,5.30
2019-01-29T19:18:46.731Z,5.07
2019-01-29T19:21:19.312Z,4.60
2019-01-29T19:23:53.465Z,4.33
2019-01-29T19:26:31.254Z,4.07
2019-01-29T19:29:07.849Z,3.67
2019-01-29T19:31:42.258Z,3.47
2019-01-29T19:34:15.181Z,3.87
2019-01-29T19:36:48.673Z,3.47
2019-01-29T19:39:26.212Z,3.40
2019-01-29T19:41:58.424Z,3.73
2019-01-29T19:45:49.387Z,4.03
2019-01-29T19:47:37.102Z,4.00
2019-01-29T19:50:43.168Z,4.20
2019-01-29T19:53:17.637Z,4.27
2019-01-29T19:55:54.801Z,3.53
2019-01-29T19:58:32.973Z,3.73
2019-01-29T20:01:11.088Z,3.30
2019-01-29T20:03:57.115Z,3.80
2019-01-29T20:06:32.531Z,3.27
2019-01-29T20:09:14.338Z,3.53
2019-01-29T20:11:55.691Z,3.50
2019-01-29T20:14:55.149Z,3.10
2019-01-29T20:17:36.909Z,3.60
2019-01-29T20:20:23.516Z,3.43
2019-01-29T20:23:08.126Z,4.93
2019-01-29T20:25:38.646Z,5.00
2019-01-29T20:28:14.529Z,4.40
2019-01-29T20:30:48.618Z,4.50
2019-01-29T20:33:26.431Z,3.47
2019-01-29T20:36:05.612Z,3.60
2019-01-29T20:38:39.611Z,3.57
2019-01-29T20:41:13.427Z,3.33
2019-01-29T20:44:15.582Z,3.50
2019-01-29T20:46:46.815Z,3.00
2019-01-29T20:49:18.964Z,3.63
2019-01-29T20:51:49.854Z,3.90
2019-01-29T20:54:20.926Z,4.13
2019-01-29T20:57:51.132Z,3.70
2019-01-29T21:00:32.198Z,3.40
2019-01-29T21:03:04.050Z,5.37
2019-01-29T21:05:36.139Z,4.90
2019-01-29T21:08:12.730Z,4.33
2019-01-29T21:10:47.957Z,3.70
2019-01-29T21:13:48.020Z,3.57
2019-01-29T21:16:13.535Z,3.00
2019-01-29T21:18:45.580Z,2.77
2019-01-29T21:21:26.620Z,2.90
2019-01-29T21:24:06.737Z,3.70
2019-01-29T21:26:58.306Z,3.17
2019-01-29T21:29:44.578Z,2.60
2019-01-29T21:32:20.104Z,2.80
2019-01-29T21:35:00.407Z,2.90
2019-01-29T21:37:41.113Z,3.33
2019-01-29T21:40:29.449Z,3.33
2019-01-29T21:43:10.038Z,3.53
2019-01-29T21:45:41.350Z,3.40
2019-01-29T21:48:16.393Z,3.17
2019-01-29T21:50:54.766Z,3.57
2019-01-29T21:53:26.434Z,3.33
2019-01-29T21:55:58.170Z,3.33
2019-01-29T21:59:31.715Z,3.30
2019-01-29T22:01:43.985Z,2.60
2019-01-29T22:04:22.519Z,2.77
2019-01-29T22:07:09.900Z,3.10
2019-01-29T22:09:45.011Z,2.70
2019-01-29T22:12:23.771Z,2.90
2019-01-29T22:15:16.509Z,3.23
2019-01-29T22:17:49.057Z,2.73
2019-01-29T22:20:20.798Z,2.87
2019-01-29T22:23:05.682Z,2.80
2019-01-29T22:25:56.504Z,2.83
2019-01-29T22:29:01.312Z,2.60
2019-01-29T22:31:32.890Z,2.90
2019-01-29T22:37:08.317Z,2.77
2019-01-29T22:39:44.640Z,2.83
2019-01-29T22:42:15.624Z,2.70
2019-01-29T22:45:02.735Z,2.77
2019-01-29T22:47:39.460Z,2.70
2019-01-29T22:50:21.668Z,3.90
2019-01-29T22:52:54.376Z,2.70
2019-01-29T22:55:25.529Z,2.93
2019-01-29T22:58:05.548Z,2.77
2019-01-29T23:01:26.461Z,2.67
2019-01-29T23:04:28.104Z,3.33
2019-01-29T23:07:45.573Z,3.00
2019-01-29T23:10:19.439Z,2.70
2019-01-29T23:12:50.520Z,2.67
2019-01-29T23:15:21.206Z,2.87
2019-01-29T23:18:03.124Z,2.80
2019-01-29T23:20:39.831Z,2.30
2019-01-29T23:23:18.286Z,2.90
2019-01-29T23:25:58.976Z,2.40
2019-01-29T23:28:35.339Z,2.53
2019-01-29T23:31:07.785Z,2.90
2019-01-29T23:33:38.897Z,3.00
2019-01-29T23:36:27.839Z,2.80
2019-01-29T23:38:59.256Z,2.60
2019-01-29T23:41:29.579Z,2.70
2019-01-29T23:44:00.508Z,2.60
2019-01-29T23:46:47.265Z,2.40
2019-01-29T23:49:19.205Z,3.03
2019-01-29T23:51:50.344Z,2.63
2019-01-29T23:54:21.123Z,2.50
2019-01-29T23:56:52.863Z,2.20
2019-01-29T23:59:40.155Z,2.47
